Time;durP1;ratioP1;P1;durP2;ratioP2;P2;SDS_P1;SDS_P2;PMS_P1;PMS_P2;Temp;Humidity;BMP_temperature;BMP_pressure;BME280_temperature;BME280_humidity;BME280_pressure;Samples;Min_cycle;Max_cycle;Signal;HPM_P1;HPM_P2
2023/08/04 00:01:16;;;;;;;;;4.67;4.67;;;;;17.71;77.42;100992.28;5093516;27;46059;-46
2023/08/04 00:03:41;;;;;;;;;7.67;4.00;;;;;17.68;77.71;100993.38;5093246;27;45477;-46
2023/08/04 00:06:10;;;;;;;;;6.00;4.00;;;;;17.67;78.02;101000.56;5091114;27;65215;-48
2023/08/04 00:08:35;;;;;;;;;6.00;6.00;;;;;17.65;78.10;101005.25;5091463;27;45504;-48
2023/08/04 00:11:01;;;;;;;;;6.00;6.00;;;;;17.64;77.98;100999.97;5091972;27;45437;-47
2023/08/04 00:13:27;;;;;;;;;5.00;5.00;;;;;17.62;78.10;101002.75;5089466;27;45524;-49
2023/08/04 00:15:52;;;;;;;;;6.67;6.67;;;;;17.59;78.24;101005.69;5090465;27;64384;-48
2023/08/04 00:18:17;;;;;;;;;5.00;5.00;;;;;17.59;78.20;101005.69;5085845;27;45425;-49
2023/08/04 00:20:43;;;;;;;;;5.00;5.00;;;;;17.56;78.29;101011.31;5089354;27;71946;-50
2023/08/04 00:23:08;;;;;;;;;6.00;5.00;;;;;17.55;78.31;101000.66;5091965;27;63617;-52
2023/08/04 00:25:33;;;;;;;;;5.67;5.67;;;;;17.52;78.66;101005.31;5080689;27;65489;-48
2023/08/04 00:27:59;;;;;;;;;7.00;5.33;;;;;17.50;78.29;101012.63;5098132;27;45401;-48
2023/08/04 00:30:24;;;;;;;;;7.00;5.00;;;;;17.49;78.57;101013.59;5095962;27;46238;-48
2023/08/04 00:32:49;;;;;;;;;5.50;5.00;;;;;17.47;78.53;101006.63;5101438;27;45442;-47
2023/08/04 00:35:15;;;;;;;;;5.00;5.00;;;;;17.45;78.93;101009.44;5098808;27;45890;-48
2023/08/04 00:37:40;;;;;;;;;5.00;5.00;;;;;17.45;78.78;101009.44;5065527;27;45364;-47
2023/08/04 00:40:06;;;;;;;;;5.00;5.00;;;;;17.43;79.25;101013.22;5091111;27;46808;-50
2023/08/04 00:42:32;;;;;;;;;4.00;4.00;;;;;17.42;79.25;101009.66;5087208;27;45437;-49
2023/08/04 00:44:57;;;;;;;;;6.00;5.00;;;;;17.42;79.29;101008.81;5096775;27;45342;-49
2023/08/04 00:47:25;;;;;;;;;6.00;5.00;;;;;17.42;79.19;101011.50;5096272;27;65949;-47
2023/08/04 00:49:51;;;;;;;;;5.00;5.00;;;;;17.40;79.27;101016.13;5089302;27;46185;-47
2023/08/04 00:52:16;;;;;;;;;6.33;6.00;;;;;17.39;79.41;101020.66;5080198;27;45335;-49
2023/08/04 00:54:43;;;;;;;;;8.00;7.00;;;;;17.39;79.66;101025.16;5099801;27;45714;-46
2023/08/04 00:57:08;;;;;;;;;9.00;7.67;;;;;17.39;79.61;101023.34;5081274;27;45630;-47
2023/08/04 00:59:34;;;;;;;;;5.67;5.00;;;;;17.38;79.89;101020.75;5077956;27;72283;-47
2023/08/04 01:01:59;;;;;;;;;7.00;7.00;;;;;17.35;80.34;101017.34;5078376;27;62067;-47
2023/08/04 01:04:25;;;;;;;;;9.00;7.67;;;;;17.35;80.16;101027.22;5097239;27;69005;-46
2023/08/04 01:07:05;;;;;;;;;8.00;7.00;;;;;17.32;80.08;101020.25;5095051;27;67276;-51
2023/08/04 01:09:36;;;;;;;;;11.67;7.00;;;;;17.31;80.35;101023.06;5096736;27;46234;-47
2023/08/04 01:12:09;;;;;;;;;6.00;5.67;;;;;17.29;80.68;101019.66;5094496;27;46599;-48
2023/08/04 01:14:35;;;;;;;;;8.00;7.00;;;;;17.27;80.78;101021.56;5075660;27;45611;-48
2023/08/04 01:17:30;;;;;;;;;7.33;5.00;;;;;17.25;80.86;101018.13;5080775;27;45593;-49
2023/08/04 01:19:56;;;;;;;;;7.67;7.00;;;;;17.23;80.88;101020.94;5091666;27;45405;-49
2023/08/04 01:22:22;;;;;;;;;6.33;6.00;;;;;17.22;81.08;101021.91;5097592;27;45521;-49
2023/08/04 01:24:49;;;;;;;;;7.00;6.00;;;;;17.20;81.19;101023.88;5098481;27;45517;-47
2023/08/04 01:27:18;;;;;;;;;6.67;6.00;;;;;17.18;81.44;101024.00;5094217;27;45813;-47
2023/08/04 01:29:44;;;;;;;;;5.67;5.67;;;;;17.17;81.45;101018.75;5066796;27;47218;-50
2023/08/04 01:32:10;;;;;;;;;7.67;7.67;;;;;17.16;81.26;101025.91;5079978;27;45438;-48
2023/08/04 01:34:36;;;;;;;;;7.33;7.33;;;;;17.13;81.57;101015.41;5094753;27;45460;-47
2023/08/04 01:37:01;;;;;;;;;7.00;7.00;;;;;17.10;81.71;101022.84;5095552;27;45686;-47
2023/08/04 01:39:26;;;;;;;;;5.33;5.33;;;;;17.07;81.70;101023.91;5076049;27;58022;-48
2023/08/04 01:41:52;;;;;;;;;6.00;6.00;;;;;17.06;81.93;101024.03;5076821;27;73000;-47
2023/08/04 01:44:17;;;;;;;;;6.00;6.00;;;;;17.03;81.95;101017.91;5093047;27;66327;-51
2023/08/04 01:46:42;;;;;;;;;8.00;7.00;;;;;17.03;82.21;101025.97;5091928;27;45439;-50
2023/08/04 01:49:09;;;;;;;;;6.67;6.67;;;;;17.02;81.87;101034.16;5094028;27;73862;-46
2023/08/04 01:51:35;;;;;;;;;8.00;8.00;;;;;16.99;82.09;101029.00;5090793;27;45399;-50
2023/08/04 01:54:00;;;;;;;;;6.33;6.33;;;;;16.96;82.64;101035.47;5094290;27;45569;-49
2023/08/04 01:56:25;;;;;;;;;7.00;5.67;;;;;16.96;82.40;101035.47;5093767;27;66128;-51
2023/08/04 01:58:52;;;;;;;;;6.00;6.00;;;;;16.94;82.87;101041.91;5096350;27;46218;-50
2023/08/04 02:01:17;;;;;;;;;5.67;5.67;;;;;16.87;82.98;101038.78;5096524;27;45593;-50
2023/08/04 02:03:43;;;;;;;;;7.00;7.00;;;;;16.85;83.15;101049.63;5096529;27;45388;-51
2023/08/04 02:06:08;;;;;;;;;6.67;6.00;;;;;16.84;83.31;101044.38;5095389;27;66820;-50
2023/08/04 02:08:33;;;;;;;;;6.67;6.67;;;;;16.83;82.99;101040.84;5095961;27;74454;-46
2023/08/04 02:10:59;;;;;;;;;6.00;6.00;;;;;16.81;83.41;101040.09;5092802;27;68208;-50
2023/08/04 02:13:24;;;;;;;;;5.67;5.67;;;;;16.78;84.02;101043.00;5091876;27;65657;-50
2023/08/04 02:15:50;;;;;;;;;6.00;6.00;;;;;16.76;83.69;101044.09;5078038;27;66832;-47
2023/08/04 02:18:15;;;;;;;;;5.33;5.33;;;;;16.73;83.88;101045.16;5091828;27;71797;-49
2023/08/04 02:20:40;;;;;;;;;7.00;7.00;;;;;16.68;84.31;101042.78;5097971;27;45570;-46
2023/08/04 02:23:06;;;;;;;;;7.00;6.00;;;;;16.65;84.65;101040.34;5097031;27;67501;-47
2023/08/04 02:25:31;;;;;;;;;7.00;5.00;;;;;16.61;84.56;101043.34;5097754;27;45302;-46
2023/08/04 02:27:56;;;;;;;;;6.33;6.33;;;;;16.61;84.60;101051.41;5097792;27;45845;-49
2023/08/04 02:30:22;;;;;;;;;6.00;6.00;;;;;16.61;84.93;101044.22;5094240;27;64875;-48
2023/08/04 02:32:47;;;;;;;;;10.00;7.00;;;;;16.62;84.46;101048.63;5096397;27;65803;-47
2023/08/04 02:35:12;;;;;;;;;8.00;7.00;;;;;16.62;84.91;101053.13;5091166;27;59404;-47
2023/08/04 02:37:38;;;;;;;;;7.00;7.00;;;;;16.62;85.00;101048.63;5099449;27;46279;-46
2023/08/04 02:40:03;;;;;;;;;6.67;6.67;;;;;16.63;84.68;101049.47;5090006;27;70260;-49
2023/08/04 02:42:29;;;;;;;;;8.67;8.00;;;;;16.61;85.07;101046.91;5095169;27;45561;-47
2023/08/04 02:44:54;;;;;;;;;6.33;6.33;;;;;16.59;85.01;101047.97;5091546;27;45413;-46
2023/08/04 02:47:20;;;;;;;;;7.00;5.00;;;;;16.58;85.07;101052.47;5095697;27;46064;-48
2023/08/04 02:49:45;;;;;;;;;6.00;6.00;;;;;16.59;85.10;101051.50;5092018;27;45489;-46
2023/08/04 02:52:14;;;;;;;;;11.00;9.67;;;;;16.58;85.21;101052.47;5092329;27;67715;-48
2023/08/04 02:54:40;;;;;;;;;8.00;8.00;;;;;16.57;85.54;101055.28;5079651;27;45354;-47
2023/08/04 02:57:05;;;;;;;;;7.33;7.00;;;;;16.53;85.43;101051.94;5090702;27;46143;-49
2023/08/04 02:59:31;;;;;;;;;7.67;7.67;;;;;16.51;85.67;101052.06;5091627;27;45540;-46
2023/08/04 03:01:56;;;;;;;;;7.67;7.00;;;;;16.48;86.41;101056.81;5088480;27;61515;-47
2023/08/04 03:04:21;;;;;;;;;10.00;9.00;;;;;16.47;86.20;101065.81;5090479;27;62808;-47
2023/08/04 03:06:47;;;;;;;;;8.67;7.00;;;;;16.46;85.75;101064.09;5089428;27;76323;-46
2023/08/04 03:09:12;;;;;;;;;11.33;9.33;;;;;16.44;86.07;101071.38;5078386;27;71437;-47
2023/08/04 03:11:37;;;;;;;;;7.67;7.67;;;;;16.42;86.33;101068.81;5095150;27;66390;-49
2023/08/04 03:14:02;;;;;;;;;13.67;7.67;;;;;16.41;86.70;101077.00;5093861;27;60985;-48
2023/08/04 03:16:28;;;;;;;;;5.67;5.67;;;;;16.40;87.08;101067.22;5098957;27;50790;-47
2023/08/04 03:18:53;;;;;;;;;10.33;8.67;;;;;16.41;86.75;101068.94;5095584;27;70015;-51
2023/08/04 03:21:18;;;;;;;;;8.00;8.00;;;;;16.40;87.07;101073.47;5090271;27;45408;-47
2023/08/04 03:23:44;;;;;;;;;9.00;7.00;;;;;16.38;86.59;101076.22;5097052;27;67200;-47
2023/08/04 03:26:09;;;;;;;;;11.67;10.67;;;;;16.37;86.93;101079.91;5096827;27;66805;-47
2023/08/04 03:28:34;;;;;;;;;10.33;8.67;;;;;16.35;87.23;101073.75;5093733;27;51327;-47
2023/08/04 03:31:00;;;;;;;;;7.67;7.67;;;;;16.35;87.49;101075.59;5096706;27;45605;-48
2023/08/04 03:33:26;;;;;;;;;9.33;9.33;;;;;16.35;87.62;101084.50;5093396;27;45636;-47
2023/08/04 03:35:51;;;;;;;;;9.33;7.67;;;;;16.35;87.30;101083.66;5094651;27;71819;-49
2023/08/04 03:38:17;;;;;;;;;9.67;8.00;;;;;16.34;87.85;101084.63;5094299;27;45499;-47
2023/08/04 03:40:42;;;;;;;;;12.00;9.33;;;;;16.32;87.46;101087.41;5093098;27;61346;-50
2023/08/04 03:43:08;;;;;;;;;8.00;7.67;;;;;16.32;87.61;101091.91;5090159;27;45700;-47
2023/08/04 03:45:33;;;;;;;;;12.33;6.00;;;;;16.31;88.08;101091.06;5093907;27;46226;-49
2023/08/04 03:47:58;;;;;;;;;8.67;8.33;;;;;16.32;88.17;101099.97;5069689;27;45603;-46
2023/08/04 03:50:25;;;;;;;;;9.00;9.00;;;;;16.32;87.71;101103.53;5090001;27;45421;-48
2023/08/04 03:52:50;;;;;;;;;12.00;6.67;;;;;16.34;87.73;101108.78;5088085;27;45626;-50
2023/08/04 03:55:15;;;;;;;;;9.33;8.33;;;;;16.35;88.26;101103.28;5091711;27;45603;-47
2023/08/04 03:57:41;;;;;;;;;8.67;8.00;;;;;16.40;88.13;101102.09;5085937;27;68809;-50
2023/08/04 04:00:07;;;;;;;;;9.33;7.00;;;;;16.42;87.91;101105.56;5092173;27;45897;-49
2023/08/04 04:02:33;;;;;;;;;7.00;7.00;;;;;16.43;88.21;101102.75;5092071;27;45525;-46
2023/08/04 04:04:58;;;;;;;;;11.00;10.00;;;;;16.47;88.67;101108.78;5086256;27;61305;-48
2023/08/04 04:07:24;;;;;;;;;12.33;10.67;;;;;16.52;88.82;101114.69;5090766;27;45482;-46
2023/08/04 04:09:49;;;;;;;;;10.67;9.00;;;;;16.57;88.46;101117.91;5084363;27;63013;-47
2023/08/04 04:12:14;;;;;;;;;10.00;10.00;;;;;16.63;88.43;101120.13;5084041;27;45796;-47
2023/08/04 04:14:40;;;;;;;;;11.67;9.00;;;;;16.67;88.24;101115.41;5080062;27;71282;-48
2023/08/04 04:17:05;;;;;;;;;9.33;8.67;;;;;16.69;88.12;101132.28;5091372;27;70194;-48
2023/08/04 04:19:30;;;;;;;;;10.00;9.00;;;;;16.70;88.17;101125.97;5095662;27;45424;-47
2023/08/04 04:21:56;;;;;;;;;10.67;9.67;;;;;16.71;88.37;101127.66;5095085;27;69657;-48
2023/08/04 04:24:21;;;;;;;;;8.00;7.33;;;;;16.71;88.08;101124.97;5081710;27;46054;-46
2023/08/04 04:26:46;;;;;;;;;10.00;10.00;;;;;16.74;88.22;101132.84;5097969;27;66840;-50
2023/08/04 04:29:12;;;;;;;;;9.67;8.33;;;;;16.76;88.36;101135.41;5092117;27;45200;-48
2023/08/04 04:31:37;;;;;;;;;13.00;10.33;;;;;16.77;88.38;101142.50;5092621;27;68674;-47
2023/08/04 04:34:03;;;;;;;;;11.67;8.00;;;;;16.76;87.99;101141.63;5094292;27;46119;-47
2023/08/04 04:36:28;;;;;;;;;10.67;9.33;;;;;16.77;88.06;101129.06;5090187;27;45586;-47
2023/08/04 04:38:53;;;;;;;;;10.33;9.00;;;;;16.77;88.05;101134.44;5091800;27;68131;-50
2023/08/04 04:41:18;;;;;;;;;12.33;11.00;;;;;16.78;88.01;101139.69;5086687;27;65163;-49
2023/08/04 04:43:44;;;;;;;;;12.67;10.33;;;;;16.77;87.75;101145.19;5093306;27;46088;-48
2023/08/04 04:46:10;;;;;;;;;9.67;9.67;;;;;16.74;88.34;101146.25;5094474;27;45241;-47
2023/08/04 04:48:35;;;;;;;;;11.00;10.67;;;;;16.74;87.95;101148.94;5093320;27;45336;-49
2023/08/04 04:51:01;;;;;;;;;9.67;9.67;;;;;16.74;88.39;101150.75;5089453;27;45572;-49
2023/08/04 04:53:26;;;;;;;;;11.33;11.33;;;;;16.74;88.65;101150.75;5088911;27;65779;-49
2023/08/04 04:55:51;;;;;;;;;7.00;7.00;;;;;16.75;88.83;101150.66;5088868;27;45358;-47
2023/08/04 04:58:17;;;;;;;;;11.00;10.00;;;;;16.78;88.08;101153.13;5085998;27;45418;-48
2023/08/04 05:00:42;;;;;;;;;12.33;12.33;;;;;16.76;88.21;101147.00;5077591;27;69689;-48
2023/08/04 05:03:10;;;;;;;;;14.00;10.33;;;;;16.75;88.34;101155.16;5093126;27;45434;-47
2023/08/04 05:05:36;;;;;;;;;8.33;8.33;;;;;16.75;88.70;101153.34;5093408;27;45596;-48
2023/08/04 05:08:01;;;;;;;;;11.00;11.00;;;;;16.76;89.14;101152.38;5095576;27;45307;-49
2023/08/04 05:10:27;;;;;;;;;12.00;12.00;;;;;16.77;88.93;101167.53;5095043;27;45362;-48
2023/08/04 05:12:52;;;;;;;;;11.67;11.67;;;;;16.78;89.16;101160.31;5095646;27;64533;-46
2023/08/04 05:15:18;;;;;;;;;10.33;10.33;;;;;16.79;88.72;101164.72;5092735;27;71575;-50
2023/08/04 05:17:44;;;;;;;;;12.33;12.00;;;;;16.80;89.11;101169.97;5093275;27;45864;-49
2023/08/04 05:20:10;;;;;;;;;12.33;11.33;;;;;16.79;88.78;101162.03;5094152;27;45700;-47
2023/08/04 05:22:35;;;;;;;;;12.00;11.00;;;;;16.81;89.06;101165.47;5094232;27;45362;-47
2023/08/04 05:25:01;;;;;;;;;11.00;11.00;;;;;16.81;89.14;101165.47;5095876;27;71536;-47
2023/08/04 05:27:26;;;;;;;;;11.00;11.00;;;;;16.81;89.26;101174.38;5096539;27;45754;-50
2023/08/04 05:29:51;;;;;;;;;14.67;14.67;;;;;16.81;88.52;101170.84;5091767;27;68121;-46
2023/08/04 05:32:17;;;;;;;;;17.67;14.00;;;;;16.83;88.86;101168.91;5097770;27;69722;-48
2023/08/04 05:34:42;;;;;;;;;11.00;11.00;;;;;16.80;89.25;101163.75;5091611;27;58622;-49
2023/08/04 05:37:08;;;;;;;;;13.67;11.33;;;;;16.81;89.64;101176.22;5093260;27;61275;-46
2023/08/04 05:39:33;;;;;;;;;15.00;13.00;;;;;16.83;89.46;101180.53;5092912;27;45392;-51
2023/08/04 05:41:58;;;;;;;;;16.00;13.00;;;;;16.83;89.87;101172.47;5077520;27;45982;-46
2023/08/04 05:44:24;;;;;;;;;13.00;11.00;;;;;16.87;89.36;101191.91;5095920;27;61269;-47
2023/08/04 05:46:49;;;;;;;;;15.67;14.67;;;;;16.87;89.37;101187.41;5091665;27;45807;-47
2023/08/04 05:49:14;;;;;;;;;17.00;14.50;;;;;16.90;89.56;101180.97;5090052;27;65916;-48
2023/08/04 05:51:40;;;;;;;;;18.67;17.33;;;;;16.94;89.12;101193.22;5086886;27;73582;-48
2023/08/04 05:54:05;;;;;;;;;21.33;19.00;;;;;16.97;89.47;101190.34;5089125;27;60398;-47
2023/08/04 05:56:30;;;;;;;;;18.00;16.00;;;;;17.02;89.53;101193.53;5092775;27;63526;-49
2023/08/04 05:58:56;;;;;;;;;20.00;18.33;;;;;17.08;89.28;101194.94;5096619;27;66323;-46
2023/08/04 06:01:21;;;;;;;;;12.67;12.67;;;;;17.14;89.58;101194.50;5096946;27;73995;-46
2023/08/04 06:03:46;;;;;;;;;16.33;16.33;;;;;17.17;88.98;101196.13;5092779;27;65464;-47
2023/08/04 06:06:12;;;;;;;;;13.00;13.00;;;;;17.20;89.02;101198.56;5094174;27;63429;-47
2023/08/04 06:08:37;;;;;;;;;15.33;13.00;;;;;17.23;89.38;101197.50;5079424;27;61720;-46
2023/08/04 06:11:02;;;;;;;;;15.33;14.00;;;;;17.29;89.56;101202.44;5093591;27;47625;-49
2023/08/04 06:13:28;;;;;;;;;16.00;14.33;;;;;17.34;89.39;101211.88;5090849;27;65487;-48
2023/08/04 06:15:53;;;;;;;;;12.67;11.33;;;;;17.40;89.27;101212.41;5093545;27;62960;-47
2023/08/04 06:18:18;;;;;;;;;16.33;15.00;;;;;17.45;88.90;101213.78;5087642;27;57867;-50
2023/08/04 06:20:47;;;;;;;;;13.00;13.00;;;;;17.49;88.48;101228.72;5091121;27;58289;-46
2023/08/04 06:23:12;;;;;;;;;14.67;13.00;;;;;17.53;88.68;101226.66;5089170;27;45428;-51
2023/08/04 06:25:38;;;;;;;;;14.00;13.00;;;;;17.58;88.54;101226.34;5088714;27;45373;-47
2023/08/04 06:28:03;;;;;;;;;14.33;12.33;;;;;17.62;88.21;101231.38;5091214;27;56607;-47
2023/08/04 06:30:29;;;;;;;;;13.00;13.00;;;;;17.64;87.73;101224.06;5095924;27;45829;-47
2023/08/04 06:32:54;;;;;;;;;21.33;14.67;;;;;17.63;87.62;101227.72;5088089;27;45717;-47
2023/08/04 06:35:20;;;;;;;;;13.33;13.33;;;;;17.66;87.95;101238.28;5091335;27;45788;-48
2023/08/04 06:37:45;;;;;;;;;12.00;11.33;;;;;17.72;87.95;101230.69;5086802;27;45402;-46
2023/08/04 06:40:10;;;;;;;;;16.00;12.33;;;;;17.79;87.56;101234.66;5075768;27;67983;-46
2023/08/04 06:42:36;;;;;;;;;15.00;12.67;;;;;17.86;87.62;101236.78;5090904;27;45703;-51
2023/08/04 06:45:02;;;;;;;;;14.67;13.00;;;;;17.92;87.28;101240.84;5085576;27;45488;-49
2023/08/04 06:47:27;;;;;;;;;13.33;13.33;;;;;17.97;86.42;101243.25;5097557;27;45628;-52
2023/08/04 06:49:53;;;;;;;;;15.67;14.67;;;;;18.01;86.80;101242.88;5091286;27;63254;-48
2023/08/04 06:52:18;;;;;;;;;15.00;12.00;;;;;18.06;86.58;101245.25;5077596;27;45306;-47
2023/08/04 06:54:43;;;;;;;;;12.00;11.00;;;;;18.11;86.94;101247.59;5094972;27;65961;-52
2023/08/04 06:57:09;;;;;;;;;18.00;14.33;;;;;18.19;86.48;101250.56;5093096;27;45715;-47
2023/08/04 06:59:34;;;;;;;;;13.00;13.00;;;;;18.26;86.54;101250.97;5093710;27;66986;-52
2023/08/04 07:01:59;;;;;;;;;12.00;12.00;;;;;18.33;85.66;101253.09;5095407;27;45568;-50
2023/08/04 07:04:25;;;;;;;;;14.00;11.33;;;;;18.39;85.86;101256.28;5093868;27;45429;-52
2023/08/04 07:06:50;;;;;;;;;12.67;12.00;;;;;18.47;85.44;101261.94;5095827;27;45398;-52
2023/08/04 07:09:16;;;;;;;;;12.33;11.00;;;;;18.55;85.34;101258.66;5087542;27;56119;-51
2023/08/04 07:11:41;;;;;;;;;14.33;11.67;;;;;18.61;84.85;101256.34;5083670;27;45807;-51
2023/08/04 07:14:07;;;;;;;;;14.67;12.00;;;;;18.66;84.61;101254.16;5090721;27;63009;-50
2023/08/04 07:16:33;;;;;;;;;11.67;11.67;;;;;18.75;84.20;101265.22;5087522;27;45751;-49
2023/08/04 07:18:58;;;;;;;;;16.00;13.00;;;;;18.78;84.45;101267.66;5091151;27;46265;-47
2023/08/04 07:21:24;;;;;;;;;10.00;10.00;;;;;18.83;84.39;101271.72;5089787;27;64950;-51
2023/08/04 07:23:49;;;;;;;;;7.67;7.67;;;;;18.90;83.84;101276.66;5085291;27;68766;-49
2023/08/04 07:26:14;;;;;;;;;10.33;10.33;;;;;18.97;83.62;101278.75;5079922;27;66239;-47
2023/08/04 07:28:39;;;;;;;;;10.33;10.33;;;;;19.03;83.25;101277.41;5083833;27;73270;-49
2023/08/04 07:31:06;;;;;;;;;13.00;10.00;;;;;19.08;83.27;101283.31;5079048;27;72125;-51
2023/08/04 07:33:32;;;;;;;;;12.00;12.00;;;;;19.14;82.63;101288.22;5079656;27;45871;-48
2023/08/04 07:35:58;;;;;;;;;10.67;10.00;;;;;19.17;82.33;101281.72;5089156;27;45689;-51
2023/08/04 07:38:25;;;;;;;;;14.00;9.33;;;;;19.24;82.42;101282.97;5093190;27;46292;-49
2023/08/04 07:40:50;;;;;;;;;9.67;8.67;;;;;19.35;82.48;101284.81;5086675;27;45662;-51
2023/08/04 07:43:16;;;;;;;;;11.00;11.00;;;;;19.51;81.67;101284.44;5088058;27;58728;-52
2023/08/04 07:45:41;;;;;;;;;12.00;11.67;;;;;19.74;81.46;101287.97;5095957;27;45633;-50
2023/08/04 07:48:07;;;;;;;;;9.00;9.00;;;;;20.08;81.26;101292.50;5090006;27;45491;-49
2023/08/04 07:50:38;;;;;;;;;10.33;10.33;;;;;20.52;79.80;101290.63;5086431;27;45436;-47
2023/08/04 07:53:03;;;;;;;;;10.67;10.67;;;;;20.71;78.58;101289.06;5089000;27;45440;-48
2023/08/04 07:55:29;;;;;;;;;13.67;11.33;;;;;20.71;77.42;101298.03;5088794;27;63378;-51
2023/08/04 07:57:55;;;;;;;;;12.00;12.00;;;;;20.66;77.37;101295.69;5088434;27;47460;-49
2023/08/04 08:00:20;;;;;;;;;16.00;13.00;;;;;20.65;77.31;101296.69;5085996;27;68208;-49
2023/08/04 08:02:45;;;;;;;;;10.33;10.33;;;;;20.81;78.02;101298.97;5075137;27;69170;-51
2023/08/04 08:05:11;;;;;;;;;12.33;12.33;;;;;21.02;76.94;101310.78;5090727;27;45287;-51
2023/08/04 08:07:36;;;;;;;;;16.33;12.00;;;;;21.48;76.68;101312.13;5070680;27;45492;-48
2023/08/04 08:10:02;;;;;;;;;14.00;11.33;;;;;21.97;75.07;101313.19;5087972;27;65124;-50
2023/08/04 08:12:27;;;;;;;;;12.33;11.00;;;;;22.26;73.72;101314.25;5095825;27;45745;-49
2023/08/04 08:14:53;;;;;;;;;11.00;11.00;;;;;22.41;72.41;101314.69;5087117;27;45615;-50
2023/08/04 08:17:19;;;;;;;;;13.33;11.33;;;;;22.57;71.66;101319.59;5085531;27;51717;-53
2023/08/04 08:19:44;;;;;;;;;13.67;11.67;;;;;22.66;71.25;101320.56;5094330;27;45383;-52
2023/08/04 08:22:10;;;;;;;;;12.00;10.33;;;;;22.75;71.29;101320.56;5088698;27;59287;-49
2023/08/04 08:24:35;;;;;;;;;8.67;8.67;;;;;22.74;70.12;101326.13;5090465;27;62288;-48
2023/08/04 08:27:00;;;;;;;;;9.67;9.67;;;;;22.77;70.53;101325.84;5087894;27;47035;-49
2023/08/04 08:29:26;;;;;;;;;11.00;9.67;;;;;22.94;69.67;101325.13;5087643;27;72001;-53
2023/08/04 08:31:51;;;;;;;;;13.00;10.67;;;;;23.15;69.40;101329.50;5069480;27;61482;-50
2023/08/04 08:34:16;;;;;;;;;13.67;10.67;;;;;23.36;68.83;101332.03;5073943;27;59848;-51
2023/08/04 08:36:42;;;;;;;;;10.50;10.50;;;;;24.19;68.47;101333.09;5081421;27;73446;-52
2023/08/04 08:39:07;;;;;;;;;11.00;9.33;;;;;26.69;67.55;101330.63;5092835;27;45409;-49
2023/08/04 08:41:32;;;;;;;;;9.50;9.25;;;;;29.05;60.08;101325.31;5085022;27;45481;-48
2023/08/04 08:43:58;;;;;;;;;10.33;8.67;;;;;31.47;55.38;101333.50;5093699;27;67525;-50
2023/08/04 08:46:24;;;;;;;;;8.25;8.25;;;;;34.16;49.27;101343.63;5088624;27;45626;-49
2023/08/04 08:48:50;;;;;;;;;9.75;9.75;;;;;36.39;46.06;101352.31;5071816;27;45436;-51
2023/08/04 08:51:19;;;;;;;;;8.00;8.00;;;;;36.75;41.75;101354.06;5097882;27;45736;-50
2023/08/04 08:53:48;;;;;;;;;9.75;8.50;;;;;37.98;39.85;101346.00;5086573;27;45833;-49
2023/08/04 08:56:15;;;;;;;;;6.50;6.50;;;;;38.04;38.05;101345.03;5093759;27;45455;-51
2023/08/04 08:58:42;;;;;;;;;11.25;7.00;;;;;38.04;34.19;101351.44;5087223;27;45338;-52
2023/08/04 09:01:07;;;;;;;;;7.00;7.00;;;;;37.31;35.61;101352.88;5095542;27;45431;-53
2023/08/04 09:03:37;;;;;;;;;5.50;5.50;;;;;36.12;36.21;101354.56;5095823;27;45665;-52
2023/08/04 09:06:03;;;;;;;;;5.75;4.00;;;;;35.16;39.14;101360.53;5089561;27;45440;-50
2023/08/04 09:08:29;;;;;;;;;4.00;4.00;;;;;35.78;38.99;101368.81;5071795;27;45552;-48
2023/08/04 09:10:54;;;;;;;;;6.25;6.25;;;;;37.78;36.33;101360.28;5094452;27;47812;-53
2023/08/04 09:13:20;;;;;;;;;4.00;4.00;;;;;38.28;35.19;101362.47;5081507;27;45374;-51
2023/08/04 09:15:51;;;;;;;;;6.00;5.00;;;;;37.12;33.40;101361.34;5095088;27;45312;-46
2023/08/04 09:18:30;;;;;;;;;6.50;5.75;;;;;36.61;35.38;101369.22;5091884;27;45566;-49
2023/08/04 09:21:08;;;;;;;;;7.25;6.25;;;;;38.26;35.46;101366.56;5076307;27;45292;-51
2023/08/04 09:23:52;;;;;;;;;6.75;5.75;;;;;40.41;31.63;101369.97;5091023;27;45667;-50
2023/08/04 09:26:18;;;;;;;;;5.50;5.25;;;;;40.30;31.38;101372.66;5061313;27;45451;-49
2023/08/04 09:28:43;;;;;;;;;6.50;6.50;;;;;38.17;31.15;101368.88;5092549;27;45406;-49
2023/08/04 09:31:11;;;;;;;;;6.50;6.50;;;;;35.77;33.70;101365.22;5095535;27;45508;-52
2023/08/04 09:33:38;;;;;;;;;6.75;6.75;;;;;33.78;34.08;101367.31;5089300;27;46345;-52
2023/08/04 09:36:08;;;;;;;;;4.25;4.25;;;;;34.50;36.19;101368.25;5055831;27;46711;-51
2023/08/04 09:38:35;;;;;;;;;5.50;5.50;;;;;37.01;33.10;101356.63;5073756;27;46248;-53
2023/08/04 09:41:08;;;;;;;;;5.25;4.00;;;;;39.38;32.14;101359.25;5076109;27;45453;-51
2023/08/04 09:43:34;;;;;;;;;5.75;5.75;;;;;40.90;29.39;101361.50;5079285;27;45630;-51
2023/08/04 09:46:05;;;;;;;;;7.50;7.50;;;;;42.27;28.20;101347.66;5075206;27;46060;-50
2023/08/04 09:48:30;;;;;;;;;6.00;5.75;;;;;43.20;27.74;101347.63;5091284;27;45510;-52
2023/08/04 09:51:12;;;;;;;;;9.25;6.50;;;;;43.90;26.37;101351.53;5075924;27;45733;-52
2023/08/04 09:53:47;;;;;;;;;6.50;5.50;;;;;44.33;24.30;101348.22;5091208;27;46266;-50
2023/08/04 09:56:17;;;;;;;;;4.00;4.00;;;;;45.08;24.45;101346.97;5093407;27;46249;-50
2023/08/04 09:58:43;;;;;;;;;4.80;4.20;;;;;45.53;22.58;101353.22;5090445;27;45458;-49
2023/08/04 10:01:09;;;;;;;;;4.25;4.25;;;;;43.99;24.11;101351.78;5093093;27;45523;-53
2023/08/04 10:03:37;;;;;;;;;5.25;4.50;;;;;40.89;24.75;101345.00;5092507;27;45442;-51
2023/08/04 10:06:05;;;;;;;;;2.25;2.25;;;;;38.08;26.90;101345.38;5090470;27;46439;-52
2023/08/04 10:08:31;;;;;;;;;7.20;4.60;;;;;35.81;29.69;101351.72;5089107;27;45518;-53
2023/08/04 10:10:59;;;;;;;;;6.00;5.75;;;;;33.93;31.01;101346.91;5089494;27;45944;-53
2023/08/04 10:13:27;;;;;;;;;3.50;3.50;;;;;32.45;33.03;101360.81;5095219;27;51045;-53
2023/08/04 10:15:54;;;;;;;;;4.75;4.75;;;;;31.23;34.40;101360.41;5062484;27;45492;-52
2023/08/04 10:18:19;;;;;;;;;4.25;3.50;;;;;30.34;36.43;101367.16;5091811;27;66526;-48
2023/08/04 10:20:45;;;;;;;;;5.50;5.25;;;;;29.99;37.17;101366.97;5094020;27;45560;-52
2023/08/04 10:23:13;;;;;;;;;5.00;5.00;;;;;31.37;37.15;101365.97;5086156;27;55588;-50
2023/08/04 10:25:51;;;;;;;;;7.00;5.00;;;;;34.10;34.65;101352.75;5093162;27;54130;-49
2023/08/04 10:28:17;;;;;;;;;6.00;6.00;;;;;36.38;31.76;101351.44;5074963;27;45606;-51
2023/08/04 10:30:42;;;;;;;;;5.25;5.25;;;;;38.19;29.06;101337.00;5093090;27;54534;-51
2023/08/04 10:33:09;;;;;;;;;6.25;6.00;;;;;39.41;28.36;101340.38;5076757;27;45604;-51
2023/08/04 10:36:05;;;;;;;;;5.75;5.25;;;;;40.77;27.40;101346.06;5098792;27;46086;-50
2023/08/04 10:39:02;;;;;;;;;3.75;3.75;;;;;41.69;25.41;101341.31;5089421;27;45455;-48
2023/08/04 10:41:29;;;;;;;;;5.00;5.00;;;;;42.25;25.51;101332.28;5022357;27;45570;-51
2023/08/04 10:44:00;;;;;;;;;4.00;4.00;;;;;42.51;24.22;101343.47;5092700;27;45518;-51
2023/08/04 10:46:25;;;;;;;;;2.25;0.75;;;;;40.96;25.55;101354.03;5089233;27;46984;-52
2023/08/04 10:48:50;;;;;;;;;2.25;2.25;;;;;38.83;25.24;101351.75;5089257;27;45321;-50
2023/08/04 10:51:16;;;;;;;;;4.00;4.00;;;;;36.85;27.65;101347.09;5088665;27;61437;-52
2023/08/04 10:53:42;;;;;;;;;7.75;7.25;;;;;35.02;29.10;101351.50;5089352;27;45575;-49
2023/08/04 10:56:07;;;;;;;;;3.75;3.75;;;;;33.46;30.87;101355.31;5089519;27;45980;-51
2023/08/04 10:58:33;;;;;;;;;3.25;3.25;;;;;32.08;31.89;101363.00;5076386;27;45399;-52
2023/08/04 11:00:58;;;;;;;;;5.50;4.75;;;;;30.90;32.95;101360.09;5092269;27;45547;-48
2023/08/04 11:03:27;;;;;;;;;4.00;4.00;;;;;29.84;34.56;101365.06;5089370;27;45592;-49
2023/08/04 11:05:53;;;;;;;;;4.75;4.75;;;;;29.06;35.26;101364.53;5091747;27;45359;-48
2023/08/04 11:08:20;;;;;;;;;8.00;7.00;;;;;28.36;36.58;101393.75;5093209;27;45759;-50
2023/08/04 11:10:50;;;;;;;;;3.25;3.00;;;;;27.71;37.26;101417.56;5089477;27;45435;-52
2023/08/04 11:13:20;;;;;;;;;1.25;1.25;;;;;26.88;37.90;101414.03;5097685;27;45481;-52
2023/08/04 11:15:47;;;;;;;;;1.75;1.75;;;;;25.86;38.57;101428.50;5093383;27;46655;-51